createdAt,value
2022-08-26T00:00:56.806Z,973.61
2022-08-26T00:01:57.017Z,973.63
2022-08-26T00:02:56.782Z,973.70
2022-08-26T00:03:56.848Z,973.66
2022-08-26T00:04:56.756Z,973.63
2022-08-26T00:05:56.742Z,973.58
2022-08-26T00:06:56.744Z,973.70
2022-08-26T00:07:56.717Z,973.74
2022-08-26T00:08:56.700Z,973.75
2022-08-26T00:09:56.689Z,973.68
2022-08-26T00:10:56.673Z,973.65
2022-08-26T00:11:56.659Z,973.57
2022-08-26T00:12:56.645Z,973.64
2022-08-26T00:13:56.634Z,973.62
2022-08-26T00:14:56.617Z,973.57
2022-08-26T00:15:56.605Z,973.61
2022-08-26T00:16:56.623Z,973.49
2022-08-26T00:17:56.580Z,973.54
2022-08-26T00:18:56.564Z,973.58
2022-08-26T00:19:56.551Z,973.56
2022-08-26T00:20:56.539Z,973.50
2022-08-26T00:21:56.524Z,973.57
2022-08-26T00:22:56.507Z,973.48
2022-08-26T00:23:56.502Z,973.53
2022-08-26T00:24:56.481Z,973.49
2022-08-26T00:25:56.848Z,973.45
2022-08-26T00:26:56.455Z,973.54
2022-08-26T00:27:56.443Z,973.55
2022-08-26T00:28:56.434Z,973.47
2022-08-26T00:29:56.416Z,973.49
2022-08-26T00:30:56.400Z,973.50
2022-08-26T00:31:56.499Z,973.58
2022-08-26T00:32:56.378Z,973.55
2022-08-26T00:33:56.362Z,973.58
2022-08-26T00:34:56.345Z,973.53
2022-08-26T00:35:56.339Z,973.57
2022-08-26T00:36:56.319Z,973.55
2022-08-26T00:37:56.307Z,973.53
2022-08-26T00:38:56.298Z,973.48
2022-08-26T00:39:56.307Z,973.50
2022-08-26T00:40:56.265Z,973.56
2022-08-26T00:41:56.253Z,973.48
2022-08-26T00:42:56.237Z,973.56
2022-08-26T00:43:56.230Z,973.56
2022-08-26T00:44:56.209Z,973.50
2022-08-26T00:45:56.235Z,973.50
2022-08-26T00:46:56.180Z,973.64
2022-08-26T00:47:56.168Z,973.54
2022-08-26T00:48:56.153Z,973.58
2022-08-26T00:49:56.145Z,973.57
2022-08-26T00:50:56.127Z,973.46
2022-08-26T00:51:56.119Z,973.57
2022-08-26T00:52:56.098Z,973.53
2022-08-26T00:53:56.092Z,973.56
2022-08-26T00:54:56.071Z,973.60
2022-08-26T00:55:56.060Z,973.53
2022-08-26T00:56:56.054Z,973.57
2022-08-26T00:57:56.034Z,973.60
2022-08-26T00:58:56.023Z,973.59
2022-08-26T00:59:56.006Z,973.67
2022-08-26T01:00:56.062Z,973.63
2022-08-26T01:01:56.011Z,973.69
2022-08-26T01:02:55.964Z,973.70
2022-08-26T01:03:55.951Z,973.63
2022-08-26T01:04:56.469Z,973.63
2022-08-26T01:05:55.926Z,973.70
2022-08-26T01:06:55.914Z,973.69
2022-08-26T01:07:55.899Z,973.69
2022-08-26T01:08:55.887Z,973.70
2022-08-26T01:09:55.872Z,973.70
2022-08-26T01:10:55.956Z,973.65
2022-08-26T01:11:55.843Z,973.65
2022-08-26T01:12:55.829Z,973.66
2022-08-26T01:13:55.822Z,973.74
2022-08-26T01:14:55.805Z,973.62
2022-08-26T01:15:55.793Z,973.68
2022-08-26T01:16:55.776Z,973.65
2022-08-26T01:17:55.762Z,973.69
2022-08-26T01:18:55.757Z,973.66
2022-08-26T01:19:55.739Z,973.62
2022-08-26T01:20:57.569Z,973.66
2022-08-26T01:21:55.707Z,973.69
2022-08-26T01:22:55.689Z,973.69
2022-08-26T01:23:57.757Z,973.70
2022-08-26T01:24:55.668Z,973.58
2022-08-26T01:25:55.666Z,973.55
2022-08-26T01:26:55.643Z,973.59
2022-08-26T01:27:55.629Z,973.60
2022-08-26T01:28:55.610Z,973.66
2022-08-26T01:29:55.598Z,973.59
2022-08-26T01:30:55.585Z,973.62
2022-08-26T01:31:55.636Z,973.58
2022-08-26T01:32:55.556Z,973.65
2022-08-26T01:33:55.544Z,973.62
2022-08-26T01:34:55.530Z,973.65
2022-08-26T01:35:55.529Z,973.60
2022-08-26T01:36:55.508Z,973.63
2022-08-26T01:37:55.501Z,973.71
2022-08-26T01:38:55.484Z,973.60
2022-08-26T01:39:55.509Z,973.61
2022-08-26T01:40:55.454Z,973.64
2022-08-26T01:41:55.478Z,973.71
2022-08-26T01:42:55.426Z,973.73
2022-08-26T01:43:55.413Z,973.70
2022-08-26T01:44:55.395Z,973.73
2022-08-26T01:45:55.420Z,973.66
2022-08-26T01:46:55.368Z,973.76
2022-08-26T01:47:56.550Z,973.80
2022-08-26T01:48:55.345Z,973.70
2022-08-26T01:49:55.335Z,973.71
2022-08-26T01:50:55.320Z,973.68
2022-08-26T01:51:55.310Z,973.74
2022-08-26T01:52:55.286Z,973.68
2022-08-26T01:53:55.278Z,973.74
2022-08-26T01:54:55.261Z,973.67
2022-08-26T01:55:55.263Z,973.71
2022-08-26T01:56:55.236Z,973.73
2022-08-26T01:57:56.251Z,973.74
2022-08-26T01:58:55.208Z,973.70
2022-08-26T01:59:55.204Z,973.70
2022-08-26T02:00:55.246Z,973.69
2022-08-26T02:01:55.174Z,973.67
2022-08-26T02:02:55.159Z,973.75
2022-08-26T02:03:55.152Z,973.73
2022-08-26T02:04:55.155Z,973.78
2022-08-26T02:05:55.129Z,973.77
2022-08-26T02:06:55.105Z,973.82
2022-08-26T02:07:55.091Z,973.81
2022-08-26T02:08:55.074Z,973.79
2022-08-26T02:09:55.067Z,973.79
2022-08-26T02:10:55.242Z,973.79
2022-08-26T02:11:55.036Z,973.82
2022-08-26T02:12:55.029Z,973.82
2022-08-26T02:13:55.008Z,973.86
2022-08-26T02:14:55.000Z,973.75
2022-08-26T02:15:55.032Z,973.80
2022-08-26T02:16:54.974Z,973.90
2022-08-26T02:17:54.957Z,973.86
2022-08-26T02:18:54.958Z,973.88
2022-08-26T02:19:54.933Z,973.77
2022-08-26T02:20:54.918Z,973.76
2022-08-26T02:21:54.913Z,973.76
2022-08-26T02:22:54.890Z,973.75
2022-08-26T02:23:56.072Z,973.82
2022-08-26T02:24:54.870Z,973.74
2022-08-26T02:25:54.858Z,973.68
2022-08-26T02:26:54.835Z,973.74
2022-08-26T02:27:54.825Z,973.68
2022-08-26T02:28:54.816Z,973.63
2022-08-26T02:29:54.804Z,973.74
2022-08-26T02:30:55.652Z,973.74
2022-08-26T02:31:54.869Z,973.74
2022-08-26T02:32:54.750Z,973.76
2022-08-26T02:33:54.752Z,973.69
2022-08-26T02:34:54.728Z,973.72
2022-08-26T02:35:54.714Z,973.72
2022-08-26T02:36:54.698Z,973.67
2022-08-26T02:37:54.696Z,973.70
2022-08-26T02:38:54.676Z,973.74
2022-08-26T02:39:54.747Z,973.76
2022-08-26T02:40:54.652Z,973.75
2022-08-26T02:41:54.650Z,973.72
2022-08-26T02:42:57.017Z,973.69
2022-08-26T02:43:54.609Z,973.72
2022-08-26T02:44:54.596Z,973.70
2022-08-26T02:45:54.585Z,973.78
2022-08-26T02:46:54.680Z,973.75
2022-08-26T02:47:54.552Z,973.76
2022-08-26T02:48:54.540Z,973.77
2022-08-26T02:49:54.535Z,973.75
2022-08-26T02:50:54.509Z,973.79
2022-08-26T02:51:54.506Z,973.74
2022-08-26T02:52:54.485Z,973.73
2022-08-26T02:53:54.475Z,973.71
2022-08-26T02:54:54.455Z,973.77
2022-08-26T02:55:54.451Z,973.79
2022-08-26T02:56:54.427Z,973.77
2022-08-26T02:57:54.423Z,973.81
2022-08-26T02:58:54.400Z,973.71
2022-08-26T02:59:54.392Z,973.74
2022-08-26T03:00:54.419Z,973.76
2022-08-26T03:01:56.142Z,973.81
2022-08-26T03:02:54.350Z,973.76
2022-08-26T03:03:54.343Z,973.77
2022-08-26T03:04:57.821Z,973.76
2022-08-26T03:05:55.340Z,973.73
2022-08-26T03:06:55.458Z,973.72
2022-08-26T03:07:54.287Z,973.73
2022-08-26T03:08:54.266Z,973.68
2022-08-26T03:09:54.263Z,973.68
2022-08-26T03:10:54.242Z,973.62
2022-08-26T03:11:54.233Z,973.60
2022-08-26T03:12:54.212Z,973.64
2022-08-26T03:13:54.204Z,973.68
2022-08-26T03:14:54.188Z,973.62
2022-08-26T03:15:54.209Z,973.61
2022-08-26T03:16:54.166Z,973.58
2022-08-26T03:17:54.151Z,973.67
2022-08-26T03:18:54.129Z,973.64
2022-08-26T03:19:57.331Z,973.63
2022-08-26T03:20:54.102Z,973.58
2022-08-26T03:21:57.979Z,973.64
2022-08-26T03:22:54.078Z,973.66
2022-08-26T03:23:54.069Z,973.66
2022-08-26T03:24:54.053Z,973.55
2022-08-26T03:25:54.039Z,973.58
2022-08-26T03:26:54.028Z,973.55
2022-08-26T03:27:54.016Z,973.57
2022-08-26T03:28:53.998Z,973.60
2022-08-26T03:29:53.983Z,973.56
2022-08-26T03:30:54.049Z,973.61
2022-08-26T03:31:53.962Z,973.68
2022-08-26T03:32:53.943Z,973.66
2022-08-26T03:33:56.569Z,973.59
2022-08-26T03:34:53.917Z,973.65
2022-08-26T03:35:53.903Z,973.58
2022-08-26T03:36:53.890Z,973.60
2022-08-26T03:37:53.885Z,973.66
2022-08-26T03:38:53.864Z,973.56
2022-08-26T03:39:53.957Z,973.65
2022-08-26T03:40:53.830Z,973.69
2022-08-26T03:41:53.821Z,973.61
2022-08-26T03:42:53.854Z,973.65
2022-08-26T03:43:55.017Z,973.65
2022-08-26T03:44:53.782Z,973.67
2022-08-26T03:45:53.772Z,973.68
2022-08-26T03:46:53.830Z,973.68
2022-08-26T03:47:53.744Z,973.61
2022-08-26T03:48:53.734Z,973.62
2022-08-26T03:49:53.712Z,973.67
2022-08-26T03:50:53.706Z,973.63
2022-08-26T03:51:53.684Z,973.66
2022-08-26T03:52:53.675Z,973.67
2022-08-26T03:53:53.666Z,973.67
2022-08-26T03:54:53.644Z,973.65
2022-08-26T03:55:53.640Z,973.60
2022-08-26T03:56:53.613Z,973.67
2022-08-26T03:57:53.606Z,973.67
2022-08-26T03:58:53.585Z,973.63
2022-08-26T03:59:53.587Z,973.67
2022-08-26T04:00:55.369Z,973.69
2022-08-26T04:01:53.607Z,973.66
2022-08-26T04:02:53.673Z,973.73
2022-08-26T04:03:53.527Z,973.73
2022-08-26T04:04:53.506Z,973.70
2022-08-26T04:05:53.505Z,973.71
2022-08-26T04:06:53.483Z,973.74
2022-08-26T04:07:53.473Z,973.79
2022-08-26T04:08:53.456Z,973.73
2022-08-26T04:09:53.444Z,973.71
2022-08-26T04:10:53.426Z,973.69
2022-08-26T04:11:53.414Z,973.70
2022-08-26T04:12:53.398Z,973.65
2022-08-26T04:13:53.394Z,973.71
2022-08-26T04:14:53.371Z,973.67
2022-08-26T04:15:53.380Z,973.66
2022-08-26T04:16:53.348Z,973.73
2022-08-26T04:17:53.336Z,973.74
2022-08-26T04:18:53.318Z,973.71
2022-08-26T04:19:53.308Z,973.67
2022-08-26T04:20:53.289Z,973.66
2022-08-26T04:21:53.393Z,973.61
2022-08-26T04:22:53.264Z,973.58
2022-08-26T04:23:53.254Z,973.58
2022-08-26T04:24:53.245Z,973.61
2022-08-26T04:25:53.231Z,973.63
2022-08-26T04:26:53.213Z,973.60
2022-08-26T04:27:53.205Z,973.58
2022-08-26T04:28:53.190Z,973.60
2022-08-26T04:29:55.224Z,973.63
2022-08-26T04:30:53.194Z,973.61
2022-08-26T04:31:55.425Z,973.56
2022-08-26T04:32:53.136Z,973.56
2022-08-26T04:33:53.123Z,973.55
2022-08-26T04:34:53.103Z,973.56
2022-08-26T04:35:53.089Z,973.57
2022-08-26T04:36:53.075Z,973.66
2022-08-26T04:37:53.069Z,973.57
2022-08-26T04:38:53.044Z,973.56
2022-08-26T04:39:53.105Z,973.53
2022-08-26T04:40:53.027Z,973.52
2022-08-26T04:41:53.008Z,973.50
2022-08-26T04:42:52.993Z,973.50
2022-08-26T04:43:52.982Z,973.51
2022-08-26T04:44:52.974Z,973.57
2022-08-26T04:45:52.955Z,973.54
2022-08-26T04:46:52.970Z,973.61
2022-08-26T04:47:52.933Z,973.57
2022-08-26T04:48:52.916Z,973.57
2022-08-26T04:49:52.900Z,973.57
2022-08-26T04:50:52.882Z,973.65
2022-08-26T04:51:52.877Z,973.59
2022-08-26T04:52:52.860Z,973.60
2022-08-26T04:53:52.849Z,973.57
2022-08-26T04:54:52.826Z,973.54
2022-08-26T04:55:55.202Z,973.62
2022-08-26T04:56:52.805Z,973.60
2022-08-26T04:57:52.793Z,973.63
2022-08-26T04:58:52.779Z,973.63
2022-08-26T04:59:52.778Z,973.65
2022-08-26T05:00:52.753Z,973.68
2022-08-26T05:01:52.870Z,973.66
2022-08-26T05:02:52.729Z,973.70
2022-08-26T05:03:52.803Z,973.66
2022-08-26T05:04:52.692Z,973.66
2022-08-26T05:05:52.693Z,973.64
2022-08-26T05:06:54.844Z,973.63
2022-08-26T05:07:52.658Z,973.73
2022-08-26T05:08:52.645Z,973.66
2022-08-26T05:09:52.633Z,973.70
2022-08-26T05:10:52.614Z,973.68
2022-08-26T05:11:52.606Z,973.76
2022-08-26T05:12:52.586Z,973.70
2022-08-26T05:13:52.583Z,973.71
2022-08-26T05:14:52.556Z,973.66
2022-08-26T05:15:52.639Z,973.73
2022-08-26T05:16:52.531Z,973.68
2022-08-26T05:17:52.523Z,973.70
2022-08-26T05:18:52.502Z,973.67
2022-08-26T05:19:52.490Z,973.78
2022-08-26T05:20:53.793Z,973.69
2022-08-26T05:21:52.476Z,973.72
2022-08-26T05:22:52.454Z,973.72
2022-08-26T05:23:52.444Z,973.72
2022-08-26T05:24:52.425Z,973.74
2022-08-26T05:25:57.064Z,973.80
2022-08-26T05:26:53.418Z,973.76
2022-08-26T05:27:52.387Z,973.73
2022-08-26T05:28:54.837Z,973.75
2022-08-26T05:29:54.374Z,973.74
2022-08-26T05:30:52.428Z,973.76
2022-08-26T05:31:52.332Z,973.75
2022-08-26T05:32:55.241Z,973.79
2022-08-26T05:33:52.309Z,973.82
2022-08-26T05:34:52.286Z,973.76
2022-08-26T05:35:52.280Z,973.76
2022-08-26T05:36:52.267Z,973.83
2022-08-26T05:37:52.249Z,973.80
2022-08-26T05:38:52.242Z,973.85
2022-08-26T05:39:52.262Z,973.84
2022-08-26T05:40:52.527Z,973.78
2022-08-26T05:41:52.197Z,973.78
2022-08-26T05:42:52.179Z,973.75
2022-08-26T05:43:52.172Z,973.80
2022-08-26T05:44:54.000Z,973.85
2022-08-26T05:45:52.234Z,973.83
2022-08-26T05:46:52.175Z,973.90
2022-08-26T05:47:52.113Z,973.83
2022-08-26T05:48:52.099Z,973.87
2022-08-26T05:49:52.092Z,973.91
2022-08-26T05:50:52.073Z,973.96
2022-08-26T05:51:52.060Z,973.88
2022-08-26T05:52:52.042Z,973.92
2022-08-26T05:53:54.507Z,973.88
2022-08-26T05:54:52.018Z,973.84
2022-08-26T05:55:52.004Z,973.88
2022-08-26T05:56:52.013Z,973.87
2022-08-26T05:57:51.977Z,973.86
2022-08-26T05:58:51.967Z,973.93
2022-08-26T05:59:51.954Z,973.93
2022-08-26T06:00:51.939Z,973.94
2022-08-26T06:01:52.008Z,973.92
2022-08-26T06:02:51.951Z,973.99
2022-08-26T06:03:51.900Z,973.89
2022-08-26T06:04:51.896Z,973.88
2022-08-26T06:05:51.869Z,974.03
2022-08-26T06:06:51.857Z,973.97
2022-08-26T06:07:51.845Z,973.93
2022-08-26T06:08:51.835Z,973.96
2022-08-26T06:09:51.821Z,973.93
2022-08-26T06:10:51.980Z,973.94
2022-08-26T06:11:51.799Z,973.99
2022-08-26T06:12:51.774Z,973.90
2022-08-26T06:13:51.768Z,973.94
2022-08-26T06:14:51.748Z,973.96
2022-08-26T06:15:51.823Z,973.93
2022-08-26T06:16:51.721Z,973.94
2022-08-26T06:17:51.705Z,973.89
2022-08-26T06:18:51.718Z,973.91
2022-08-26T06:19:51.683Z,973.98
2022-08-26T06:20:57.987Z,973.93
2022-08-26T06:21:54.310Z,973.95
2022-08-26T06:22:51.639Z,973.93
2022-08-26T06:23:51.624Z,973.92
2022-08-26T06:24:51.608Z,973.87
2022-08-26T06:25:51.604Z,973.85
2022-08-26T06:26:51.582Z,973.90
2022-08-26T06:27:51.580Z,973.87
2022-08-26T06:28:51.557Z,973.88
2022-08-26T06:29:51.553Z,973.90
2022-08-26T06:30:51.650Z,973.87
2022-08-26T06:31:51.519Z,973.90
2022-08-26T06:32:51.501Z,973.87
2022-08-26T06:33:51.499Z,973.93
2022-08-26T06:34:51.485Z,973.84
2022-08-26T06:35:51.463Z,973.87
2022-08-26T06:36:53.137Z,973.83
2022-08-26T06:37:51.441Z,973.90
2022-08-26T06:38:51.432Z,973.92
2022-08-26T06:39:51.496Z,973.88
2022-08-26T06:40:51.402Z,973.76
2022-08-26T06:41:51.382Z,973.79
2022-08-26T06:42:51.377Z,973.80
2022-08-26T06:43:51.361Z,973.89
2022-08-26T06:44:51.350Z,973.87
2022-08-26T06:45:51.338Z,973.81
2022-08-26T06:46:51.450Z,973.84
2022-08-26T06:47:51.304Z,973.85
2022-08-26T06:48:51.301Z,973.84
2022-08-26T06:49:51.280Z,973.84
2022-08-26T06:50:51.270Z,973.81
2022-08-26T06:51:51.251Z,973.88
2022-08-26T06:52:51.245Z,973.87
2022-08-26T06:53:51.230Z,973.86
2022-08-26T06:54:51.213Z,973.79
2022-08-26T06:55:51.926Z,973.77
2022-08-26T06:56:51.191Z,973.75
2022-08-26T06:57:51.174Z,973.76
2022-08-26T06:58:51.166Z,973.71
2022-08-26T06:59:51.344Z,973.69
2022-08-26T07:00:51.145Z,973.70
2022-08-26T07:01:51.169Z,973.78
2022-08-26T07:02:51.185Z,973.66
2022-08-26T07:03:51.103Z,973.73
2022-08-26T07:04:51.360Z,973.71
2022-08-26T07:05:51.071Z,973.76
2022-08-26T07:06:52.607Z,973.74
2022-08-26T07:07:51.045Z,973.71
2022-08-26T07:08:51.039Z,973.75
2022-08-26T07:09:52.442Z,973.74
2022-08-26T07:10:51.011Z,973.73
2022-08-26T07:11:50.997Z,973.75
2022-08-26T07:12:50.986Z,973.72
2022-08-26T07:13:50.969Z,973.77
2022-08-26T07:14:50.964Z,973.78
2022-08-26T07:15:51.009Z,973.74
2022-08-26T07:16:51.954Z,973.74
2022-08-26T07:17:50.913Z,973.75
2022-08-26T07:18:50.905Z,973.76
2022-08-26T07:19:50.887Z,973.82
2022-08-26T07:20:50.880Z,973.79
2022-08-26T07:21:50.865Z,973.75
2022-08-26T07:22:50.852Z,973.77
2022-08-26T07:23:50.835Z,973.82
2022-08-26T07:24:50.833Z,973.80
2022-08-26T07:25:50.813Z,973.81
2022-08-26T07:26:50.803Z,973.77
2022-08-26T07:27:54.347Z,973.79
2022-08-26T07:28:50.782Z,973.78
2022-08-26T07:29:50.756Z,973.82
2022-08-26T07:30:50.864Z,973.79
2022-08-26T07:31:50.728Z,973.75
2022-08-26T07:32:50.734Z,973.81
2022-08-26T07:33:50.709Z,973.73
2022-08-26T07:34:50.700Z,973.79
2022-08-26T07:35:50.683Z,973.72
2022-08-26T07:36:50.678Z,973.75
2022-08-26T07:37:55.058Z,973.81
2022-08-26T07:38:51.670Z,973.73
2022-08-26T07:39:50.672Z,973.77
2022-08-26T07:40:50.622Z,973.63
2022-08-26T07:41:50.612Z,973.72
2022-08-26T07:42:50.597Z,973.70
2022-08-26T07:43:50.578Z,973.65
2022-08-26T07:44:50.575Z,973.70
2022-08-26T07:45:50.602Z,973.71
2022-08-26T07:46:53.277Z,973.72
2022-08-26T07:47:50.533Z,973.66
2022-08-26T07:48:50.526Z,973.63
2022-08-26T07:49:52.830Z,973.72
2022-08-26T07:50:50.854Z,973.65
2022-08-26T07:51:50.484Z,973.70
2022-08-26T07:52:50.473Z,973.66
2022-08-26T07:53:52.673Z,973.63
2022-08-26T07:54:50.447Z,973.62
2022-08-26T07:55:50.432Z,973.65
2022-08-26T07:56:50.421Z,973.62
2022-08-26T07:57:50.406Z,973.60
2022-08-26T07:58:51.784Z,973.60
2022-08-26T07:59:50.386Z,973.59
2022-08-26T08:00:50.375Z,973.54
2022-08-26T08:01:50.396Z,973.61
2022-08-26T08:02:50.347Z,973.62
2022-08-26T08:03:50.516Z,973.67
2022-08-26T08:04:50.366Z,973.59
2022-08-26T08:05:50.312Z,973.58
2022-08-26T08:06:50.301Z,973.63
2022-08-26T08:07:53.583Z,973.56
2022-08-26T08:08:51.658Z,973.53
2022-08-26T08:09:50.254Z,973.52
2022-08-26T08:10:50.249Z,973.55
2022-08-26T08:11:51.279Z,973.55
2022-08-26T08:12:50.221Z,973.60
2022-08-26T08:13:56.155Z,973.59
2022-08-26T08:14:51.222Z,973.42
2022-08-26T08:15:50.279Z,973.48
2022-08-26T08:16:54.431Z,973.47
2022-08-26T08:17:50.476Z,973.42
2022-08-26T08:18:50.177Z,973.44
2022-08-26T08:19:50.135Z,973.39
2022-08-26T08:20:59.231Z,973.48
2022-08-26T08:21:51.134Z,973.45
2022-08-26T08:22:50.107Z,973.41
2022-08-26T08:23:50.091Z,973.43
2022-08-26T08:24:53.000Z,973.42
2022-08-26T08:25:50.062Z,973.44
2022-08-26T08:26:50.058Z,973.41
2022-08-26T08:27:50.045Z,973.36
2022-08-26T08:28:50.034Z,973.33
2022-08-26T08:29:50.013Z,973.31
2022-08-26T08:30:50.085Z,973.36
2022-08-26T08:31:56.524Z,973.39
2022-08-26T08:32:51.002Z,973.33
2022-08-26T08:33:49.977Z,973.38
2022-08-26T08:34:49.961Z,973.42
2022-08-26T08:35:49.941Z,973.44
2022-08-26T08:36:49.941Z,973.31
2022-08-26T08:37:49.923Z,973.32
2022-08-26T08:38:49.915Z,973.33
2022-08-26T08:39:49.998Z,973.30
2022-08-26T08:40:49.893Z,973.28
2022-08-26T08:41:49.869Z,973.31
2022-08-26T08:42:49.879Z,973.32
2022-08-26T08:43:49.846Z,973.26
2022-08-26T08:44:52.037Z,973.22
2022-08-26T08:45:49.930Z,973.28
2022-08-26T08:46:49.819Z,973.30
2022-08-26T08:47:49.800Z,973.20
2022-08-26T08:48:49.797Z,973.19
2022-08-26T08:49:49.774Z,973.16
2022-08-26T08:50:49.772Z,973.18
2022-08-26T08:51:49.750Z,973.21
2022-08-26T08:52:49.748Z,973.14
2022-08-26T08:53:49.737Z,973.14
2022-08-26T08:54:49.720Z,973.10
2022-08-26T08:55:49.735Z,973.08
2022-08-26T08:56:49.696Z,973.06
2022-08-26T08:57:49.682Z,973.09
2022-08-26T08:58:49.677Z,973.12
2022-08-26T08:59:49.664Z,973.12
2022-08-26T09:00:49.661Z,973.13
2022-08-26T09:01:52.410Z,973.06
2022-08-26T09:02:49.678Z,973.05
2022-08-26T09:03:49.614Z,973.02
2022-08-26T09:04:49.609Z,973.04
2022-08-26T09:05:49.597Z,973.07
2022-08-26T09:06:49.653Z,973.10
2022-08-26T09:07:49.577Z,973.05
2022-08-26T09:08:50.468Z,973.01
2022-08-26T09:09:49.554Z,973.05
2022-08-26T09:10:49.536Z,973.02
2022-08-26T09:11:49.522Z,972.94
2022-08-26T09:12:49.521Z,973.00
2022-08-26T09:13:49.501Z,972.90
2022-08-26T09:14:49.492Z,972.90
2022-08-26T09:15:49.480Z,972.93
2022-08-26T09:16:49.535Z,972.92
2022-08-26T09:17:49.457Z,972.84
2022-08-26T09:18:49.451Z,972.91
2022-08-26T09:19:49.439Z,972.90
2022-08-26T09:20:49.427Z,972.87
2022-08-26T09:21:53.355Z,972.83
2022-08-26T09:22:49.403Z,972.82
2022-08-26T09:23:49.830Z,972.80
2022-08-26T09:24:49.390Z,972.74
2022-08-26T09:25:49.399Z,972.79
2022-08-26T09:26:49.364Z,972.82
2022-08-26T09:27:50.424Z,972.80
2022-08-26T09:28:49.344Z,972.75
2022-08-26T09:29:50.490Z,972.77
2022-08-26T09:30:49.375Z,972.74
2022-08-26T09:31:49.300Z,972.80
2022-08-26T09:33:14.340Z,972.73
2022-08-26T09:33:50.309Z,972.84
2022-08-26T09:34:49.275Z,972.81
2022-08-26T09:35:49.269Z,972.71
2022-08-26T09:36:49.258Z,972.74
2022-08-26T09:38:49.239Z,972.73
2022-08-26T09:39:49.275Z,972.69
2022-08-26T09:40:49.215Z,972.72
2022-08-26T09:41:50.225Z,972.75
2022-08-26T09:42:49.186Z,972.70
2022-08-26T09:43:49.172Z,972.66
2022-08-26T09:44:49.171Z,972.68
2022-08-26T09:45:50.823Z,972.61
2022-08-26T09:46:49.141Z,972.61
2022-08-26T09:47:49.136Z,972.61
2022-08-26T09:48:53.081Z,972.59
2022-08-26T09:49:49.111Z,972.56
2022-08-26T09:50:49.109Z,972.50
2022-08-26T09:51:50.125Z,972.57
2022-08-26T09:52:49.084Z,972.54
2022-08-26T09:53:49.063Z,972.51
2022-08-26T09:54:49.055Z,972.50
2022-08-26T09:55:49.078Z,972.45
2022-08-26T09:56:49.041Z,972.45
2022-08-26T09:57:49.027Z,972.39
2022-08-26T09:58:49.018Z,972.40
2022-08-26T09:59:49.011Z,972.33
2022-08-26T10:00:49.041Z,972.35
2022-08-26T10:01:49.166Z,972.19
2022-08-26T10:02:49.535Z,972.26
2022-08-26T10:03:49.090Z,972.24
2022-08-26T10:04:48.955Z,972.15
2022-08-26T10:05:48.942Z,972.07
2022-08-26T10:06:48.940Z,972.06
2022-08-26T10:07:48.923Z,972.11
2022-08-26T10:08:48.915Z,971.95
2022-08-26T10:09:48.899Z,971.99
2022-08-26T10:10:48.925Z,971.86
2022-08-26T10:11:49.034Z,971.90
2022-08-26T10:12:48.876Z,971.95
2022-08-26T10:13:48.856Z,971.83
2022-08-26T10:14:48.947Z,971.86
2022-08-26T10:15:50.771Z,971.85
2022-08-26T10:16:48.901Z,971.76
2022-08-26T10:17:48.823Z,971.74
2022-08-26T10:18:48.819Z,971.71
2022-08-26T10:19:57.102Z,971.76
2022-08-26T10:20:49.809Z,971.74
2022-08-26T10:21:48.783Z,971.76
2022-08-26T10:22:48.767Z,971.71
2022-08-26T10:23:48.761Z,971.74
2022-08-26T10:24:50.836Z,971.60
2022-08-26T10:25:48.741Z,971.63
2022-08-26T10:26:48.735Z,971.65
2022-08-26T10:27:53.380Z,971.72
2022-08-26T10:28:48.710Z,971.73
2022-08-26T10:29:48.700Z,971.74
2022-08-26T10:30:48.692Z,971.72
2022-08-26T10:31:48.743Z,971.60
2022-08-26T10:32:48.667Z,971.55
2022-08-26T10:33:48.656Z,971.59
2022-08-26T10:34:48.646Z,971.51
2022-08-26T10:35:48.630Z,971.61
2022-08-26T10:37:13.587Z,971.62
2022-08-26T10:37:49.637Z,971.54
2022-08-26T10:38:48.612Z,971.52
2022-08-26T10:39:49.136Z,971.50
2022-08-26T10:40:49.131Z,971.56
2022-08-26T10:41:48.579Z,971.56
2022-08-26T10:42:48.571Z,971.47
2022-08-26T10:43:48.554Z,971.45
2022-08-26T10:44:48.549Z,971.50
2022-08-26T10:45:48.589Z,971.48
2022-08-26T10:46:48.531Z,971.50
2022-08-26T10:47:48.521Z,971.43
2022-08-26T10:48:48.507Z,971.48
2022-08-26T10:49:48.495Z,971.54
2022-08-26T10:50:48.496Z,971.48
2022-08-26T10:51:48.479Z,971.53
2022-08-26T10:52:48.471Z,971.55
2022-08-26T10:53:48.471Z,971.60
2022-08-26T10:54:48.456Z,971.79
2022-08-26T10:55:48.440Z,971.70
2022-08-26T10:56:48.431Z,971.72
2022-08-26T10:57:48.430Z,971.68
2022-08-26T10:58:48.413Z,971.70
2022-08-26T10:59:48.411Z,971.63
2022-08-26T11:00:48.431Z,971.53
2022-08-26T11:01:51.103Z,971.62
2022-08-26T11:02:48.384Z,971.65
2022-08-26T11:03:48.414Z,971.74
2022-08-26T11:04:48.754Z,971.78
2022-08-26T11:05:48.335Z,971.72
2022-08-26T11:06:48.329Z,971.62
2022-08-26T11:07:48.312Z,971.59
2022-08-26T11:08:48.304Z,971.56
2022-08-26T11:09:48.300Z,971.65
2022-08-26T11:10:48.276Z,971.54
2022-08-26T11:11:48.270Z,971.49
2022-08-26T11:12:49.200Z,971.49
2022-08-26T11:13:48.252Z,971.49
2022-08-26T11:14:58.457Z,971.46
2022-08-26T11:15:49.246Z,971.44
2022-08-26T11:16:48.237Z,971.38
2022-08-26T11:17:48.212Z,971.35
2022-08-26T11:18:48.195Z,971.30
2022-08-26T11:20:00.192Z,971.34
2022-08-26T11:20:49.203Z,971.28
2022-08-26T11:21:50.762Z,971.31
2022-08-26T11:22:48.305Z,971.25
2022-08-26T11:23:50.592Z,971.26
2022-08-26T11:24:48.128Z,971.19
2022-08-26T11:25:48.136Z,971.26
2022-08-26T11:26:56.143Z,971.24
2022-08-26T11:27:49.129Z,971.27
2022-08-26T11:28:48.090Z,971.31
2022-08-26T11:29:48.078Z,971.31
2022-08-26T11:30:48.068Z,971.27
2022-08-26T11:31:49.134Z,971.30
2022-08-26T11:32:48.744Z,971.30
2022-08-26T11:33:48.041Z,971.25
2022-08-26T11:34:48.028Z,971.36
2022-08-26T11:35:48.025Z,971.40
2022-08-26T11:36:48.012Z,971.43
2022-08-26T11:37:47.997Z,971.49
2022-08-26T11:38:47.987Z,971.46
2022-08-26T11:39:52.554Z,971.45
2022-08-26T11:40:49.010Z,971.37
2022-08-26T11:41:47.960Z,971.38
2022-08-26T11:42:47.946Z,971.33
2022-08-26T11:43:47.938Z,971.35
2022-08-26T11:44:49.313Z,971.28
2022-08-26T11:45:47.955Z,971.23
2022-08-26T11:46:47.902Z,971.28
2022-08-26T11:47:49.461Z,971.21
2022-08-26T11:48:47.881Z,971.19
2022-08-26T11:49:47.877Z,971.20
2022-08-26T11:50:47.863Z,971.17
2022-08-26T11:51:48.340Z,971.19
2022-08-26T11:52:47.840Z,971.10
2022-08-26T11:53:47.837Z,971.12
2022-08-26T11:54:47.818Z,971.10
2022-08-26T11:55:47.812Z,971.15
2022-08-26T11:56:47.802Z,971.24
2022-08-26T11:57:47.800Z,971.23
2022-08-26T11:58:47.774Z,971.21
2022-08-26T11:59:47.776Z,971.24
2022-08-26T12:00:47.758Z,971.27
2022-08-26T12:01:47.747Z,971.23
2022-08-26T12:02:47.733Z,971.34
2022-08-26T12:03:47.802Z,971.36
2022-08-26T12:04:47.771Z,971.39
2022-08-26T12:05:47.710Z,971.37
2022-08-26T12:06:47.700Z,971.34
2022-08-26T12:07:47.694Z,971.28
2022-08-26T12:08:47.675Z,971.35
2022-08-26T12:09:47.666Z,971.34
2022-08-26T12:10:47.652Z,971.34
2022-08-26T12:11:47.649Z,971.28
2022-08-26T12:12:47.636Z,971.37
2022-08-26T12:13:47.631Z,971.37
2022-08-26T12:14:47.611Z,971.34
2022-08-26T12:15:47.605Z,971.40
2022-08-26T12:16:47.656Z,971.46
2022-08-26T12:17:51.694Z,971.49
2022-08-26T12:18:47.572Z,971.54
2022-08-26T12:19:47.567Z,971.59
2022-08-26T12:20:47.545Z,971.73
2022-08-26T12:21:47.546Z,971.65
2022-08-26T12:22:48.099Z,971.63
2022-08-26T12:23:47.514Z,971.67
2022-08-26T12:24:47.503Z,971.64
2022-08-26T12:25:47.493Z,971.79
2022-08-26T12:26:47.482Z,971.66
2022-08-26T12:27:50.616Z,971.58
2022-08-26T12:28:48.487Z,971.54
2022-08-26T12:29:48.526Z,971.64